Time;durP1;ratioP1;P1;durP2;ratioP2;P2;SDS_P1;SDS_P2;PMS_P1;PMS_P2;Temp;Humidity;BMP_temperature;BMP_pressure;BME280_temperature;BME280_humidity;BME280_pressure;Samples;Min_cycle;Max_cycle;Signal;HPM_P1;HPM_P2
2022/05/23 00:01:05;;;;;;;4.95;1.98;;;;;;;16.68;66.65;100152.88;4963564;28;20020;-73
2022/05/23 00:03:31;;;;;;;2.33;1.80;;;;;;;16.71;66.04;100150.69;4987384;28;20002;-74
2022/05/23 00:05:57;;;;;;;2.40;2.20;;;;;;;16.77;66.25;100157.09;4989228;28;20040;-74
2022/05/23 00:08:25;;;;;;;2.05;1.83;;;;;;;16.52;67.68;100152.13;4986384;28;20090;-73
2022/05/23 00:10:50;;;;;;;3.03;2.15;;;;;;;16.51;67.58;100157.66;4975693;28;20024;-73
2022/05/23 00:13:16;;;;;;;2.60;1.83;;;;;;;16.42;67.53;100165.78;5005383;28;20233;-73
2022/05/23 00:15:41;;;;;;;2.38;1.60;;;;;;;16.35;67.59;100164.91;4986999;28;20098;-74
2022/05/23 00:18:07;;;;;;;1.90;1.70;;;;;;;16.42;67.64;100163.13;4971009;28;20026;-72
2022/05/23 00:20:32;;;;;;;2.95;1.98;;;;;;;16.34;68.56;100157.88;4986051;28;20017;-74
2022/05/23 00:22:57;;;;;;;3.00;1.85;;;;;;;16.28;69.39;100147.97;4992873;28;20085;-74
2022/05/23 00:25:23;;;;;;;1.70;1.60;;;;;;;16.21;68.96;100141.75;4971004;28;20471;-73
2022/05/23 00:27:48;;;;;;;2.60;1.75;;;;;;;16.19;68.90;100138.41;4956467;28;20013;-73
2022/05/23 00:30:16;;;;;;;3.30;1.70;;;;;;;16.19;68.44;100133.94;4970249;28;20017;-73
2022/05/23 00:35:25;;;;;;;3.95;1.90;;;;;;;16.11;67.99;100116.16;4980637;28;20137;-74
2022/05/23 00:37:52;;;;;;;2.10;1.83;;;;;;;16.13;67.57;100111.47;5009213;28;20374;-74
2022/05/23 00:40:30;;;;;;;1.80;1.70;;;;;;;16.19;67.09;100101.03;5009501;28;20014;-73
2022/05/23 00:43:15;;;;;;;2.58;1.75;;;;;;;16.10;67.15;100087.84;4990174;28;21009;-74
2022/05/23 00:45:45;;;;;;;2.70;1.80;;;;;;;16.12;66.40;100096.47;4977877;28;20277;-73
2022/05/23 00:48:10;;;;;;;2.15;1.80;;;;;;;16.08;66.24;100095.19;4991682;28;20695;-74
2022/05/23 00:50:37;;;;;;;3.67;1.95;;;;;;;16.12;66.49;100106.34;4970725;28;20995;-74
2022/05/23 00:53:03;;;;;;;2.25;1.90;;;;;;;16.15;66.69;100100.63;4969868;28;20042;-73
2022/05/23 00:55:32;;;;;;;4.07;1.90;;;;;;;16.15;66.65;100089.94;4957881;28;20441;-74
2022/05/23 00:58:04;;;;;;;3.70;1.83;;;;;;;16.08;67.55;100084.53;4974563;28;20060;-73
2022/05/23 01:00:29;;;;;;;1.67;1.58;;;;;;;16.17;66.82;100095.91;4977444;28;20014;-73
2022/05/23 01:02:56;;;;;;;3.90;1.88;;;;;;;16.16;66.86;100109.44;5012721;27;20020;-73
2022/05/23 01:05:21;;;;;;;3.85;1.98;;;;;;;16.16;67.54;100102.28;4953699;28;20366;-73
2022/05/23 01:07:46;;;;;;;3.58;1.80;;;;;;;16.16;68.38;100109.44;4967293;28;20018;-73
2022/05/23 01:10:12;;;;;;;4.60;1.98;;;;;;;16.13;68.42;100105.31;4973673;28;20026;-73
2022/05/23 01:12:38;;;;;;;6.60;1.90;;;;;;;16.22;67.93;100103.38;4972770;28;20435;-73
2022/05/23 01:15:05;;;;;;;1.88;1.77;;;;;;;16.19;66.85;100103.72;4977408;28;20818;-73
2022/05/23 01:17:30;;;;;;;2.22;2.00;;;;;;;16.24;67.83;100104.81;4974139;28;20983;-73
2022/05/23 01:19:56;;;;;;;3.63;1.92;;;;;;;16.31;67.75;100088.84;4957776;28;20036;-73
2022/05/23 01:22:37;;;;;;;1.98;1.88;;;;;;;16.35;67.97;100092.81;4987516;28;20029;-73
2022/05/23 01:25:26;;;;;;;4.03;1.90;;;;;;;16.38;66.60;100099.59;4968643;28;20586;-72
2022/05/23 01:27:51;;;;;;;3.00;1.80;;;;;;;16.49;67.25;100102.59;4982291;27;20150;-73
2022/05/23 01:30:17;;;;;;;1.88;1.77;;;;;;;16.39;66.69;100106.59;5011494;27;20013;-73
2022/05/23 01:32:42;;;;;;;1.90;1.70;;;;;;;16.37;66.61;100098.78;4996432;27;20017;-73
2022/05/23 01:35:08;;;;;;;3.33;1.80;;;;;;;16.31;67.41;100088.84;4974944;28;20187;-73
2022/05/23 01:37:33;;;;;;;2.00;1.90;;;;;;;16.22;67.94;100087.34;4975777;28;20694;-73
2022/05/23 01:39:59;;;;;;;2.90;1.73;;;;;;;16.19;67.83;100079.69;4976042;28;20014;-73
2022/05/23 01:42:24;;;;;;;3.35;1.80;;;;;;;16.18;68.19;100078.88;4956081;28;20486;-73
2022/05/23 01:44:50;;;;;;;5.72;2.00;;;;;;;16.16;68.16;100085.41;4962612;28;20577;-73
2022/05/23 01:47:17;;;;;;;6.88;1.85;;;;;;;16.13;68.56;100086.63;4960569;28;20604;-73
2022/05/23 01:49:42;;;;;;;3.95;2.30;;;;;;;16.08;68.85;100089.88;4971962;28;20028;-73
2022/05/23 01:52:08;;;;;;;3.35;1.90;;;;;;;16.00;69.35;100091.81;4989027;28;20788;-73
2022/05/23 01:54:34;;;;;;;4.15;2.15;;;;;;;15.99;68.95;100091.00;4958394;28;20508;-73
2022/05/23 01:57:00;;;;;;;2.55;2.20;;;;;;;16.04;68.17;100090.44;4953038;28;20101;-74
2022/05/23 02:02:10;;;;;;;;;;;;;;;16.03;69.61;100096.78;4992318;28;20040;-73
2022/05/23 02:04:36;;;;;;;2.27;2.10;;;;;;;16.17;69.89;100095.09;4966695;28;20514;-73
2022/05/23 02:07:01;;;;;;;5.07;2.10;;;;;;;16.13;69.95;100092.81;4972873;28;20856;-73
2022/05/23 02:09:26;;;;;;;2.17;2.08;;;;;;;16.07;69.86;100082.03;4973357;28;20013;-73
2022/05/23 02:11:53;;;;;;;5.22;1.90;;;;;;;16.17;69.48;100079.06;4956058;28;20188;-73
2022/05/23 02:14:18;;;;;;;4.07;2.13;;;;;;;16.09;69.38;100077.34;4973983;28;20097;-73
2022/05/23 02:16:43;;;;;;;2.08;1.90;;;;;;;16.04;68.80;100075.25;4962895;28;20006;-73
2022/05/23 02:19:09;;;;;;;3.22;2.30;;;;;;;16.10;68.70;100077.16;4988335;28;20505;-73
2022/05/23 02:21:34;;;;;;;2.28;2.05;;;;;;;16.04;69.19;100072.56;4983269;28;20017;-74
2022/05/23 02:24:03;;;;;;;6.93;2.17;;;;;;;15.97;69.73;100067.16;5007577;28;20017;-73
2022/05/23 02:26:29;;;;;;;6.00;2.00;;;;;;;15.86;70.17;100058.81;4996304;28;20068;-74
2022/05/23 02:28:54;;;;;;;3.53;2.28;;;;;;;15.88;70.60;100049.63;4994899;28;20017;-73
2022/05/23 02:31:19;;;;;;;3.25;2.33;;;;;;;15.87;71.23;100044.47;4993569;28;20762;-73
2022/05/23 02:33:45;;;;;;;2.88;2.00;;;;;;;15.82;71.17;100038.88;4992823;28;20339;-73
2022/05/23 02:36:10;;;;;;;2.63;2.03;;;;;;;15.71;72.39;100032.16;5010292;28;20025;-73
2022/05/23 02:38:35;;;;;;;3.38;2.30;;;;;;;15.69;73.25;100021.66;5011420;28;20073;-73
2022/05/23 02:41:01;;;;;;;3.55;2.20;;;;;;;15.64;73.24;100021.44;4992434;28;21008;-74
2022/05/23 02:43:27;;;;;;;2.50;2.30;;;;;;;15.71;73.30;100025.00;5010474;28;20476;-73
2022/05/23 02:45:52;;;;;;;3.10;2.10;;;;;;;15.68;72.91;100019.19;5007125;28;20013;-73
2022/05/23 02:48:17;;;;;;;4.07;2.20;;;;;;;15.71;73.00;100022.31;4999847;28;20079;-73
2022/05/23 02:50:43;;;;;;;2.20;2.00;;;;;;;15.68;73.00;100012.03;4994824;28;20009;-73
2022/05/23 02:53:08;;;;;;;2.38;2.28;;;;;;;15.67;72.20;100005.03;4992872;28;20989;-74
2022/05/23 02:55:34;;;;;;;2.55;2.35;;;;;;;15.73;72.13;99995.47;4995684;28;20455;-74
2022/05/23 02:57:59;;;;;;;3.45;2.28;;;;;;;15.68;70.41;99998.69;5014147;28;20017;-74
2022/05/23 03:00:24;;;;;;;3.65;2.20;;;;;;;15.75;70.12;99991.59;4994440;28;20003;-74
2022/05/23 03:03:02;;;;;;;3.22;2.30;;;;;;;15.85;69.04;99983.31;4986455;28;20098;-74
2022/05/23 03:05:31;;;;;;;2.72;2.20;;;;;;;15.88;68.53;99971.44;4980167;28;20321;-73
2022/05/23 03:07:56;;;;;;;2.65;2.20;;;;;;;15.98;67.51;99966.59;4995069;28;20021;-72
2022/05/23 03:10:22;;;;;;;2.90;2.20;;;;;;;16.04;66.55;99955.16;4978486;28;20074;-73
2022/05/23 03:12:47;;;;;;;2.95;2.20;;;;;;;16.06;65.63;99953.13;4995306;28;20021;-72
2022/05/23 03:15:12;;;;;;;2.42;2.20;;;;;;;16.12;66.11;99944.34;4999671;28;20091;-73
2022/05/23 03:17:39;;;;;;;4.65;2.10;;;;;;;16.14;65.92;99945.00;4978191;28;21049;-73
2022/05/23 03:20:04;;;;;;;2.50;2.10;;;;;;;16.18;64.91;99931.25;4959040;28;21068;-73
2022/05/23 03:27:58;;;;;;;3.92;2.10;;;;;;;16.31;63.05;99923.31;4965876;28;20538;-73
2022/05/23 03:30:24;;;;;;;3.10;2.03;;;;;;;16.37;63.85;99919.06;4941845;28;20010;-72
2022/05/23 03:32:50;;;;;;;3.45;2.10;;;;;;;16.47;63.66;99916.88;4979371;28;20021;-73
2022/05/23 03:35:15;;;;;;;2.60;2.10;;;;;;;16.49;64.98;99912.97;4960329;28;20090;-73
2022/05/23 03:37:41;;;;;;;2.70;2.08;;;;;;;16.47;64.16;99916.88;4976001;28;20005;-73
2022/05/23 03:40:07;;;;;;;2.35;2.15;;;;;;;16.59;62.43;99915.28;4975250;28;20016;-73
2022/05/23 03:42:33;;;;;;;2.60;2.00;;;;;;;16.64;63.25;99909.38;4975426;28;20032;-74
2022/05/23 03:44:58;;;;;;;3.40;2.10;;;;;;;16.63;62.86;99907.72;4959284;28;20493;-73
2022/05/23 03:47:24;;;;;;;4.05;2.33;;;;;;;16.56;63.37;99905.00;4939411;28;20018;-73
2022/05/23 03:49:49;;;;;;;2.75;2.10;;;;;;;16.61;63.08;99904.41;4972510;28;20026;-74
2022/05/23 03:52:14;;;;;;;4.82;1.90;;;;;;;16.62;63.46;99912.22;4992539;28;20020;-74
2022/05/23 03:54:40;;;;;;;2.40;1.80;;;;;;;16.65;63.71;99913.66;4995792;28;20041;-73
2022/05/23 03:57:05;;;;;;;3.28;2.20;;;;;;;16.65;63.58;99892.31;4993693;28;20040;-74
2022/05/23 03:59:31;;;;;;;2.60;1.90;;;;;;;16.66;62.72;99888.63;4978967;28;20025;-75
2022/05/23 04:01:57;;;;;;;1.80;1.70;;;;;;;16.66;62.89;99883.28;4958394;28;20010;-74
2022/05/23 04:04:26;;;;;;;3.17;2.08;;;;;;;16.75;62.48;99882.09;4971813;28;20577;-74
2022/05/23 04:06:52;;;;;;;4.07;1.73;;;;;;;16.70;61.73;99878.38;4970904;28;20281;-75
2022/05/23 04:09:17;;;;;;;2.10;1.77;;;;;;;16.69;62.02;99869.50;4964441;28;20037;-74
2022/05/23 04:11:42;;;;;;;3.85;1.90;;;;;;;16.70;62.05;99860.50;4917471;28;21016;-73
2022/05/23 04:14:08;;;;;;;2.15;2.03;;;;;;;16.69;62.44;99864.16;4934543;28;20026;-74
2022/05/23 04:16:33;;;;;;;2.42;1.90;;;;;;;16.78;61.83;99860.31;4933652;28;20002;-74
2022/05/23 04:18:59;;;;;;;3.65;2.10;;;;;;;16.77;62.20;99857.84;4955187;28;20022;-74
2022/05/23 04:21:24;;;;;;;1.70;1.60;;;;;;;16.74;61.24;99855.59;4964944;28;20399;-74
2022/05/23 04:23:50;;;;;;;3.70;1.90;;;;;;;16.80;61.72;99858.25;4975752;28;20517;-75
2022/05/23 04:26:15;;;;;;;2.00;1.80;;;;;;;16.78;62.86;99854.13;4991908;28;20263;-74
2022/05/23 04:28:40;;;;;;;2.33;1.85;;;;;;;16.87;60.97;99854.81;4973476;28;20024;-74
2022/05/23 04:31:07;;;;;;;2.35;1.90;;;;;;;16.93;59.60;99851.34;4989757;28;20419;-73
2022/05/23 04:36:16;;;;;;;2.08;1.83;;;;;;;17.12;60.79;99850.59;4994038;28;20090;-74
2022/05/23 04:38:42;;;;;;;1.88;1.77;;;;;;;17.22;60.11;99842.19;4974303;28;20025;-74
2022/05/23 04:41:07;;;;;;;4.35;1.80;;;;;;;17.21;59.71;99845.06;4990074;28;21026;-74
2022/05/23 04:43:33;;;;;;;3.63;1.70;;;;;;;17.22;58.49;99841.34;4973107;28;20723;-73
2022/05/23 04:45:58;;;;;;;2.88;1.92;;;;;;;17.24;58.34;99847.31;4987817;28;20026;-73
2022/05/23 04:51:07;;;;;;;2.15;1.95;;;;;;;17.29;58.89;99831.50;4991962;28;20085;-74
2022/05/23 04:53:34;;;;;;;3.10;1.98;;;;;;;17.33;59.59;99816.72;4972822;28;20026;-74
2022/05/23 04:56:00;;;;;;;2.30;1.70;;;;;;;17.35;59.07;99825.34;4988713;28;20025;-74
2022/05/23 04:58:28;;;;;;;2.38;1.73;;;;;;;17.33;58.26;99828.22;5010171;28;20014;-74
2022/05/23 05:00:54;;;;;;;3.50;1.95;;;;;;;17.41;58.67;99827.19;5007529;28;20006;-74
2022/05/23 05:03:19;;;;;;;1.90;1.80;;;;;;;17.41;59.58;99821.03;4992149;28;20008;-75
2022/05/23 05:05:45;;;;;;;2.25;1.90;;;;;;;17.40;58.70;99820.22;5008753;28;20136;-74
2022/05/23 05:08:10;;;;;;;2.35;1.90;;;;;;;17.38;58.56;99816.91;4993316;28;20767;-73
2022/05/23 05:10:36;;;;;;;2.05;1.83;;;;;;;17.40;58.64;99814.00;4990457;28;20022;-73
2022/05/23 05:13:01;;;;;;;2.08;1.80;;;;;;;17.44;59.75;99818.78;4994006;28;20418;-74
2022/05/23 05:15:27;;;;;;;2.88;1.88;;;;;;;17.37;59.37;99809.91;4958686;28;20017;-74
2022/05/23 05:17:52;;;;;;;2.63;2.00;;;;;;;17.41;60.03;99797.75;4972963;28;20894;-74
2022/05/23 05:20:21;;;;;;;2.17;2.00;;;;;;;17.33;59.41;99784.63;4985053;28;20237;-74
2022/05/23 05:22:46;;;;;;;3.60;1.77;;;;;;;17.35;59.18;99782.56;4934523;28;20015;-75
2022/05/23 05:25:12;;;;;;;2.30;2.10;;;;;;;17.30;59.75;99767.13;4950782;28;20039;-74
2022/05/23 05:27:38;;;;;;;2.80;1.77;;;;;;;17.37;58.26;99761.75;4954259;28;20021;-74
2022/05/23 05:30:05;;;;;;;2.00;1.90;;;;;;;17.40;58.44;99765.88;4937681;28;20014;-75
2022/05/23 05:33:00;;;;;;;2.60;1.92;;;;;;;17.46;59.69;99771.25;4938520;28;20076;-75
2022/05/23 05:35:28;;;;;;;2.88;1.77;;;;;;;17.48;59.71;99769.16;4952353;28;20108;-75
2022/05/23 05:38:34;;;;;;;2.05;1.83;;;;;;;17.54;58.43;99761.34;4967852;28;20019;-75
2022/05/23 05:41:03;;;;;;;2.67;1.58;;;;;;;17.60;58.58;99758.69;4854573;28;20393;-75
2022/05/23 05:43:31;;;;;;;2.50;1.92;;;;;;;17.68;58.56;99757.63;4921622;28;20026;-74
2022/05/23 05:45:59;;;;;;;1.73;1.65;;;;;;;17.69;57.49;99748.56;4959689;28;20353;-74
2022/05/23 05:48:25;;;;;;;2.60;1.98;;;;;;;17.73;57.98;99744.47;4974571;28;20757;-74
2022/05/23 05:50:50;;;;;;;2.58;1.85;;;;;;;17.76;58.01;99748.56;4992422;28;20535;-75
2022/05/23 05:53:24;;;;;;;2.10;1.95;;;;;;;17.75;57.85;99753.09;5009972;28;20132;-75
2022/05/23 05:55:50;;;;;;;2.95;1.83;;;;;;;17.82;57.60;99753.94;4991972;28;20009;-74
2022/05/23 05:58:17;;;;;;;2.55;2.20;;;;;;;17.83;56.99;99752.06;4992404;28;20817;-75
2022/05/23 06:00:42;;;;;;;2.10;1.90;;;;;;;17.89;58.56;99756.56;4993895;28;20005;-75
2022/05/23 06:03:08;;;;;;;1.85;1.70;;;;;;;17.94;57.67;99745.28;4992475;28;20009;-75
2022/05/23 06:11:23;;;;;;;3.70;2.00;;;;;;;17.95;58.43;99746.91;5010704;27;20010;-74
2022/05/23 06:13:47;;;;;;;2.13;1.98;;;;;;;18.06;58.19;99748.13;5009119;28;20083;-74
2022/05/23 06:16:13;;;;;;;2.20;2.00;;;;;;;18.10;57.36;99744.81;4994591;28;20013;-74
2022/05/23 06:18:38;;;;;;;2.65;1.85;;;;;;;18.16;57.31;99737.78;4989397;28;20024;-74
2022/05/23 06:21:09;;;;;;;4.05;2.30;;;;;;;18.17;56.62;99744.78;4970833;28;20461;-74
2022/05/23 06:23:35;;;;;;;3.85;2.15;;;;;;;18.26;56.88;99734.66;4972361;28;20317;-74
2022/05/23 06:26:00;;;;;;;1.80;1.67;;;;;;;18.24;55.27;99731.38;4987862;28;20777;-74
2022/05/23 06:28:25;;;;;;;4.43;1.98;;;;;;;18.36;56.24;99727.00;4990470;28;20010;-74
2022/05/23 06:30:51;;;;;;;2.35;1.90;;;;;;;18.36;57.42;99717.13;4988698;28;20082;-74
2022/05/23 06:33:16;;;;;;;4.80;2.17;;;;;;;18.47;56.00;99715.63;4973681;28;20344;-74
2022/05/23 06:35:42;;;;;;;3.53;1.90;;;;;;;18.61;55.40;99715.53;4973422;28;20026;-74
2022/05/23 06:38:07;;;;;;;3.50;1.92;;;;;;;18.71;55.41;99718.56;4973013;28;20102;-75
2022/05/23 06:40:34;;;;;;;2.17;1.85;;;;;;;18.81;55.70;99713.56;4991584;28;20021;-74
2022/05/23 06:43:01;;;;;;;2.15;1.80;;;;;;;18.87;55.32;99711.91;4973634;28;20026;-74
2022/05/23 06:45:26;;;;;;;3.55;2.10;;;;;;;18.93;54.57;99710.22;4975834;27;20009;-74
2022/05/23 06:47:52;;;;;;;2.35;2.03;;;;;;;19.01;56.03;99702.72;4961048;28;20332;-74
2022/05/23 06:50:17;;;;;;;2.50;2.10;;;;;;;19.09;55.82;99708.84;4955894;28;20282;-75
2022/05/23 06:52:42;;;;;;;3.67;2.08;;;;;;;19.14;56.27;99709.03;4952328;28;20030;-75
2022/05/23 06:55:08;;;;;;;3.50;2.05;;;;;;;19.15;56.80;99722.22;4938412;28;20107;-75
2022/05/23 06:57:33;;;;;;;3.45;1.83;;;;;;;19.01;54.94;99718.00;4956005;28;20018;-74
2022/05/23 06:59:59;;;;;;;2.40;2.05;;;;;;;19.09;55.07;99724.94;4940911;28;20937;-74
2022/05/23 07:02:24;;;;;;;4.72;2.00;;;;;;;19.07;55.65;99722.50;4972538;28;20279;-75
2022/05/23 07:13:01;;;;;;;2.65;2.20;;;;;;;19.34;54.76;99720.41;4963128;28;20009;-75
2022/05/23 07:15:27;;;;;;;3.47;1.92;;;;;;;19.46;52.25;99715.16;4929884;28;20450;-74
2022/05/23 07:17:53;;;;;;;3.35;1.90;;;;;;;19.54;54.29;99706.81;4955635;28;20030;-74
2022/05/23 07:20:18;;;;;;;3.05;2.17;;;;;;;19.58;53.04;99701.00;4953976;28;20188;-75
2022/05/23 07:22:44;;;;;;;2.95;2.40;;;;;;;19.71;53.74;99700.84;4970187;28;20029;-75
2022/05/23 07:25:09;;;;;;;3.60;1.90;;;;;;;19.71;53.89;99698.16;4985173;28;20110;-75
2022/05/23 07:27:34;;;;;;;2.03;1.90;;;;;;;19.69;53.09;99693.03;4971989;28;20002;-75
2022/05/23 07:30:00;;;;;;;2.10;1.60;;;;;;;19.74;53.52;99684.31;4989522;28;20862;-75
2022/05/23 07:32:25;;;;;;;3.15;1.90;;;;;;;19.83;52.49;99684.88;4969577;28;20564;-75
2022/05/23 07:34:50;;;;;;;2.33;1.80;;;;;;;19.88;52.68;99685.84;4953314;28;20045;-75
2022/05/23 07:37:16;;;;;;;4.20;1.80;;;;;;;20.02;53.38;99677.63;4988687;28;20420;-75
2022/05/23 07:39:42;;;;;;;3.55;2.05;;;;;;;20.00;51.87;99674.34;4957092;28;20034;-75
2022/05/23 07:42:08;;;;;;;4.80;1.88;;;;;;;19.96;52.24;99679.34;4972344;28;20014;-74
2022/05/23 07:44:34;;;;;;;1.90;1.80;;;;;;;20.06;52.91;99681.50;4984743;28;20030;-74
2022/05/23 07:46:59;;;;;;;2.00;1.90;;;;;;;20.02;52.12;99680.31;4942618;28;20696;-74
2022/05/23 07:49:25;;;;;;;3.70;2.03;;;;;;;20.08;52.29;99682.09;4934749;28;20138;-75
2022/05/23 07:51:50;;;;;;;4.93;2.30;;;;;;;20.15;52.58;99688.22;4951846;28;20086;-75
2022/05/23 08:02:28;;;;;;;2.03;1.80;;;;;;;20.29;54.14;99670.06;4973683;28;20415;-75
2022/05/23 08:04:55;;;;;;;3.90;1.88;;;;;;;20.39;53.06;99669.50;4972883;28;20026;-74
2022/05/23 08:07:21;;;;;;;2.50;2.00;;;;;;;20.53;52.28;99657.53;4935369;28;20308;-74
2022/05/23 08:09:46;;;;;;;2.88;2.00;;;;;;;20.53;51.35;99665.59;4944254;28;20891;-75
2022/05/23 08:12:11;;;;;;;3.92;2.22;;;;;;;20.62;52.63;99657.19;4967389;28;20006;-75
2022/05/23 08:14:37;;;;;;;2.70;1.73;;;;;;;20.72;52.29;99654.78;4958958;28;20038;-74
2022/05/23 08:17:02;;;;;;;1.88;1.75;;;;;;;20.74;53.24;99650.00;4970545;28;20028;-75
2022/05/23 08:19:28;;;;;;;2.20;2.00;;;;;;;20.65;51.04;99645.97;4971529;28;20998;-75
2022/05/23 08:21:55;;;;;;;3.65;2.00;;;;;;;20.52;52.10;99644.31;4953742;28;20006;-76
2022/05/23 08:24:20;;;;;;;2.42;2.13;;;;;;;20.55;52.10;99641.97;4972282;28;20037;-75
2022/05/23 08:26:46;;;;;;;2.00;1.90;;;;;;;20.41;52.48;99645.91;4976124;28;20010;-76
2022/05/23 08:29:11;;;;;;;2.00;1.90;;;;;;;20.67;53.48;99630.44;4951586;28;20007;-75
2022/05/23 08:31:37;;;;;;;4.00;1.80;;;;;;;20.97;52.22;99624.19;4959624;28;20277;-75
2022/05/23 08:34:02;;;;;;;1.92;1.80;;;;;;;21.19;52.04;99616.34;4951922;28;20045;-74
2022/05/23 08:36:28;;;;;;;2.90;2.00;;;;;;;21.17;52.19;99619.28;4933950;28;20148;-75
2022/05/23 08:38:53;;;;;;;2.97;1.90;;;;;;;21.22;52.44;99614.03;4969616;28;20090;-75
2022/05/23 08:41:25;;;;;;;2.03;1.83;;;;;;;21.30;50.31;99620.09;4981973;28;20281;-75
2022/05/23 08:43:50;;;;;;;2.03;1.83;;;;;;;21.32;51.68;99617.97;4975763;28;20178;-75
2022/05/23 08:46:39;;;;;;;2.50;1.70;;;;;;;21.57;49.68;99625.81;5001439;28;20343;-76
2022/05/23 08:49:29;;;;;;;4.75;2.08;;;;;;;21.66;50.77;99623.56;4943486;28;20042;-75
2022/05/23 08:52:19;;;;;;;2.70;1.70;;;;;;;21.92;50.77;99628.41;4939621;28;20025;-75
2022/05/23 08:54:53;;;;;;;2.78;2.20;;;;;;;22.05;47.82;99615.75;4957989;28;20049;-75
2022/05/23 08:57:35;;;;;;;2.00;1.90;;;;;;;22.08;49.29;99615.25;4972540;28;20033;-75
2022/05/23 09:00:14;;;;;;;13.98;5.22;;;;;;;22.14;50.62;99614.31;4956661;28;21105;-74
2022/05/23 09:02:46;;;;;;;5.63;2.67;;;;;;;22.00;50.20;99612.94;4966046;28;20022;-75
2022/05/23 09:05:15;;;;;;;2.30;2.03;;;;;;;22.01;48.92;99601.13;4959450;28;20041;-75
2022/05/23 09:07:44;;;;;;;3.28;2.00;;;;;;;22.28;50.26;99599.47;4970489;28;20018;-75
2022/05/23 09:10:35;;;;;;;2.53;2.00;;;;;;;22.61;51.17;99592.50;4971316;28;20006;-75
2022/05/23 09:13:00;;;;;;;1.70;1.60;;;;;;;22.57;48.66;99588.66;4954979;28;20064;-74
2022/05/23 09:15:25;;;;;;;3.72;2.15;;;;;;;22.70;49.03;99594.78;4969838;28;20042;-75
2022/05/23 09:17:56;;;;;;;3.08;2.10;;;;;;;22.97;48.60;99586.84;4964364;28;20146;-75
2022/05/23 09:20:42;;;;;;;2.25;1.92;;;;;;;23.29;47.68;99587.06;4947205;28;20030;-76
2022/05/23 09:23:10;;;;;;;6.82;2.10;;;;;;;23.49;48.70;99581.13;4969030;28;20525;-74
2022/05/23 09:25:36;;;;;;;1.73;1.63;;;;;;;23.42;47.23;99571.56;4954760;28;20018;-75
2022/05/23 09:28:04;;;;;;;1.70;1.60;;;;;;;23.81;47.49;99574.19;4955638;28;20007;-76
2022/05/23 09:30:30;;;;;;;1.75;1.45;;;;;;;23.81;46.09;99571.47;4971668;28;20740;-75
2022/05/23 09:32:59;;;;;;;2.15;1.65;;;;;;;23.47;47.20;99563.53;4954224;28;20022;-75
2022/05/23 09:35:26;;;;;;;2.60;1.42;;;;;;;23.66;47.67;99558.63;4989785;28;20104;-75
2022/05/23 09:38:16;;;;;;;2.47;1.50;;;;;;;23.90;47.33;99555.66;4994344;28;20156;-75
2022/05/23 09:40:42;;;;;;;1.95;1.30;;;;;;;24.21;46.15;99548.66;4968622;28;20438;-75
2022/05/23 09:49:13;;;;;;;2.50;1.52;;;;;;;24.40;43.99;99529.38;4997901;28;19978;-76
2022/05/23 09:51:48;;;;;;;4.43;1.50;;;;;;;24.53;44.11;99515.41;4993128;28;20507;-75
2022/05/23 09:54:22;;;;;;;3.03;1.50;;;;;;;24.51;44.17;99514.84;4992672;28;20036;-75
2022/05/23 09:56:48;;;;;;;3.65;1.60;;;;;;;24.58;44.03;99507.34;4976101;28;20191;-75
2022/05/23 09:59:21;;;;;;;3.85;1.55;;;;;;;24.55;43.96;99504.31;4959706;28;20032;-75
2022/05/23 10:01:46;;;;;;;1.38;1.38;;;;;;;24.31;45.09;99496.56;4991934;28;20112;-75
2022/05/23 10:04:23;;;;;;;1.73;1.40;;;;;;;24.03;45.43;99493.13;4976382;28;20017;-75
2022/05/23 10:06:50;;;;;;;1.85;1.58;;;;;;;23.96;46.31;99496.03;4975230;28;20498;-75
2022/05/23 10:09:33;;;;;;;3.25;1.40;;;;;;;23.82;47.47;99489.38;4978526;28;20116;-75
2022/05/23 10:12:04;;;;;;;6.35;1.80;;;;;;;24.16;45.25;99489.97;4993028;28;20016;-76
2022/05/23 10:15:17;;;;;;;2.22;2.03;;;;;;;24.25;45.05;99481.41;4977073;28;20129;-76
2022/05/23 10:17:43;;;;;;;3.42;1.70;;;;;;;24.51;46.39;99499.44;5003537;28;20026;-75
2022/05/23 10:20:25;;;;;;;1.65;1.55;;;;;;;24.74;45.93;99499.34;4973596;28;20252;-76
2022/05/23 10:23:01;;;;;;;2.22;1.88;;;;;;;24.86;44.48;99505.34;5007054;28;20480;-75
2022/05/23 10:25:56;;;;;;;6.88;1.80;;;;;;;25.13;43.61;99497.13;4994488;28;21808;-75
2022/05/23 10:28:55;;;;;;;3.50;1.65;;;;;;;25.56;43.32;99493.50;5002417;28;20025;-76
2022/05/23 10:31:30;;;;;;;1.70;1.30;;;;;;;25.77;44.40;99486.22;4995847;28;20021;-75
2022/05/23 10:33:59;;;;;;;2.55;1.67;;;;;;;25.48;43.04;99481.28;5009936;28;20991;-76
2022/05/23 10:36:25;;;;;;;5.00;1.50;;;;;;;25.33;43.49;99482.88;5008987;28;20794;-76
2022/05/23 10:44:33;;;;;;;2.38;1.70;;;;;;;26.55;41.47;99450.72;4980117;28;20922;-76
2022/05/23 10:47:09;;;;;;;2.55;1.27;;;;;;;27.06;42.46;99440.78;4972994;28;20893;-76
2022/05/23 10:49:40;;;;;;;1.60;1.50;;;;;;;27.13;41.61;99435.06;4991628;28;20669;-76
2022/05/23 10:52:30;;;;;;;2.78;1.50;;;;;;;27.70;41.11;99422.78;5020372;28;20226;-76
2022/05/23 10:54:55;;;;;;;4.15;1.67;;;;;;;27.42;41.91;99417.00;5011759;28;20025;-77
2022/05/23 10:57:20;;;;;;;1.90;1.70;;;;;;;27.28;41.86;99420.59;5036025;28;20774;-76
2022/05/23 11:00:06;;;;;;;1.53;1.43;;;;;;;27.07;41.87;99421.53;5035633;28;20997;-75
2022/05/23 11:02:51;;;;;;;3.72;1.50;;;;;;;26.67;41.77;99422.47;5014663;28;20533;-75
2022/05/23 11:05:35;;;;;;;1.92;1.55;;;;;;;27.12;42.52;99411.69;5034714;28;20025;-74
2022/05/23 11:08:10;;;;;;;1.73;1.63;;;;;;;26.80;41.91;99410.25;4998188;28;20302;-75
2022/05/23 11:10:48;;;;;;;2.35;1.65;;;;;;;26.95;42.25;99406.63;5003524;27;20005;-76
2022/05/23 11:13:21;;;;;;;4.30;1.75;;;;;;;26.72;43.36;99407.00;5034572;27;20641;-78
2022/05/23 11:16:27;;;;;;;1.70;1.40;;;;;;;27.17;44.16;99398.09;4993892;28;20487;-77
2022/05/23 11:19:17;;;;;;;1.98;1.60;;;;;;;27.70;42.06;99383.94;4996316;28;20076;-75
2022/05/23 11:22:12;;;;;;;1.80;1.50;;;;;;;28.08;40.38;99379.53;5013295;28;20367;-75
2022/05/23 11:24:50;;;;;;;1.63;1.52;;;;;;;27.66;42.03;99370.09;4988024;28;20028;-75
2022/05/23 11:35:43;;;;;;;1.98;1.70;;;;;;;26.62;43.36;99346.50;5003855;28;20035;-76
2022/05/23 11:38:11;;;;;;;3.55;1.55;;;;;;;26.25;43.08;99336.88;4991525;28;20121;-76
2022/05/23 11:40:37;;;;;;;1.65;1.50;;;;;;;26.17;43.91;99338.22;4994541;28;20024;-76
2022/05/23 11:43:17;;;;;;;3.57;1.60;;;;;;;25.97;44.66;99337.16;4973512;28;20256;-75
2022/05/23 11:49:02;;;;;;;2.15;1.40;;;;;;;26.16;45.41;99328.50;4973164;28;20032;-75
2022/05/23 11:51:38;;;;;;;2.50;1.50;;;;;;;26.49;43.92;99323.50;4952999;28;20022;-76
2022/05/23 11:54:08;;;;;;;2.42;1.33;;;;;;;26.79;44.25;99327.19;4953147;28;20083;-77
2022/05/23 11:57:12;;;;;;;1.73;1.50;;;;;;;26.91;43.63;99323.03;4973198;28;20033;-76
2022/05/23 11:59:37;;;;;;;;;;;;;;;27.04;44.12;99324.31;4955199;28;20087;-75
2022/05/23 12:02:12;;;;;;;3.53;1.67;;;;;;;26.85;42.83;99313.31;4957857;28;20378;-75
2022/05/23 12:04:43;;;;;;;2.75;1.67;;;;;;;26.47;45.87;99301.25;4981171;28;20021;-75
2022/05/23 12:07:42;;;;;;;1.85;1.70;;;;;;;26.23;45.61;99301.91;4962652;28;20122;-76
2022/05/23 12:10:22;;;;;;;4.00;2.20;;;;;;;25.59;47.32;99295.22;4963794;28;20014;-76
2022/05/23 12:13:11;;;;;;;3.03;1.80;;;;;;;25.39;47.41;99290.63;4980941;28;20013;-76
2022/05/23 12:15:43;;;;;;;4.22;3.35;;;;;;;25.30;48.78;99290.31;4958282;28;20157;-71
2022/05/23 12:18:32;;;;;;;4.35;2.00;;;;;;;25.27;47.25;99299.78;5003652;28;20049;-76
2022/05/23 12:21:07;;;;;;;4.03;1.88;;;;;;;25.28;49.00;99312.22;4981379;28;20192;-75
2022/05/23 12:23:45;;;;;;;1.92;1.70;;;;;;;25.37;47.98;99297.13;4984884;28;20887;-77
2022/05/23 12:26:11;;;;;;;3.30;2.10;;;;;;;25.56;47.22;99295.75;4987324;28;20018;-75
2022/05/23 12:28:58;;;;;;;2.20;2.00;;;;;;;25.93;47.12;99300.84;5002197;28;20481;-75
2022/05/23 12:31:27;;;;;;;2.45;1.90;;;;;;;25.71;48.33;99285.72;4999505;28;20124;-75
2022/05/23 12:34:02;;;;;;;4.35;2.00;;;;;;;25.43;47.79;99280.88;4949238;28;20341;-75
2022/05/23 12:36:28;;;;;;;4.93;1.80;;;;;;;25.40;48.09;99292.22;5000306;28;20010;-76
2022/05/23 12:39:31;;;;;;;2.58;2.10;;;;;;;25.32;48.21;99290.88;4965551;28;20010;-75
2022/05/23 12:42:13;;;;;;;3.85;1.95;;;;;;;24.94;49.58;99290.25;5000270;28;20027;-75
2022/05/23 12:44:54;;;;;;;3.40;1.90;;;;;;;24.63;49.84;99284.78;4985831;28;20103;-74